Aérodrome :
LOGIN :

S'inscrire | Disclaimer

   EN    FR    IT 

 










Légende :    VFR   VFR Marginal   IFR   IFR Intensif   IFR Très Intensif
Visi : 
Plafond : 
>= 8 km
>= 3000ft
5 à 8 km
1000 à 3000 ft
1500m à 5 km
500 à 1000 ft
800 à 1500m
200 à 500 ft
< 800m
< 200 ft
Symboles :   Orages  Brouillard  Fortes neiges  Fortes précipitations  Vent > 20 kt
SIGMETs :   Divers  Orages  Givrage  Turbulence  Onde Orograph.  Cendres Volcan.






- Altitude de l'aérodrome : 3 ft
- Code IATA : LWR


EHLW - Leuuwarden Air Base

DERNIER METAR :
  • 240125Z AUTO 19006KT 160V230 2100 BR BKN003 BKN004 OVC008 03/03 Q1024 YLO

METARs EXPIRÉS :
  • 240108Z AUTO 19007KT 2200 BR FEW002 OVC007 03/03 Q1024 YLO
  • 240055Z AUTO 19007KT 160V220 2300 BR BKN003 OVC007 03/03 Q1024 YLO
  • 240025Z AUTO 18008KT 160V220 2100 BR BKN003 OVC004 03/03 Q1025 YLO
  • 232358Z AUTO 19008KT 2200 BR FEW001 OVC003 03/03 Q1025 YLO
  • 232355Z AUTO 19008KT 2200 BR OVC002 03/03 Q1025 AMB
  • 232338Z AUTO 19007KT 140V210 2200 BR BKN002 OVC003 03/03 Q1025 AMB
  • 232326Z AUTO 18007KT 120V220 2200 BR BKN001 OVC003 04/03 Q1025 RED
  • 232309Z AUTO 18006KT 140V210 2200 BR SCT001 OVC002 04/03 Q1026 RED
  • 232259Z AUTO 19007KT 150V220 2200 BR FEW001 OVC002 04/03 Q1026 AMB
  • 232255Z AUTO 19006KT 160V220 2200 BR SCT001 OVC002 04/03 Q1026 RED

TAF TAF EHLW
Valide du 23 à 22h jusqu'au 24 à 10h UTC


232154Z 2322/2410 19006KT 4000 BR BKN008
TEMPO 2322/2410 2000 BKN003
PROB30
TEMPO 2402/2409 1200 BKN001



MET'MAP, la Météo Aéronautique d'un coup d'oeil ! - Copyright ORBIFLY Décembre 2007 - Disclaimer

ORBIFLY MET'MAP TEAM :

Programmation & Développement : Alexandra Zaïnal
Sur une idée originale de : Baudouin d'Aumeries
Assistance à la programmation : Marc-Olivier Méhu
Soutien technique & logistique : Manuel Goepfert

Contact : metmap@orbifly.com




SOURCES & CREDITS :

   NOAA